Time;durP1;ratioP1;P1;durP2;ratioP2;P2;SDS_P1;SDS_P2;PMS_P1;PMS_P2;Temp;Humidity;BMP_temperature;BMP_pressure;BME280_temperature;BME280_humidity;BME280_pressure;Samples;Min_cycle;Max_cycle;Signal;HPM_P1;HPM_P2
2023/01/07 00:01:35;;;;;;;71.65;32.85;;;9.70;99.90;;;;;;5011345;28;20048;-50
2023/01/07 00:04:02;;;;;;;67.63;31.98;;;10.20;99.90;;;;;;5021557;28;20053;-51
2023/01/07 00:06:34;;;;;;;73.55;33.75;;;9.60;99.90;;;;;;5031335;28;20167;-56
2023/01/07 00:09:00;;;;;;;76.05;33.75;;;9.90;99.90;;;;;;5027338;28;20034;-54
2023/01/07 00:11:29;;;;;;;80.43;34.97;;;10.00;99.90;;;;;;5029795;28;20415;-52
2023/01/07 00:13:57;;;;;;;80.30;35.08;;;9.80;99.90;;;;;;5029171;28;20159;-53
2023/01/07 00:16:25;;;;;;;76.70;34.20;;;10.10;99.90;;;;;;5032361;28;20045;-50
2023/01/07 00:18:53;;;;;;;74.82;32.88;;;10.20;99.90;;;;;;5031448;28;20034;-53
2023/01/07 00:21:24;;;;;;;77.68;30.80;;;10.00;99.90;;;;;;5031818;28;20037;-54
2023/01/07 00:23:54;;;;;;;61.88;29.75;;;9.80;99.90;;;;;;5012243;28;20331;-55
2023/01/07 00:26:21;;;;;;;67.68;28.92;;;10.40;99.90;;;;;;5029847;28;20038;-51
2023/01/07 00:28:49;;;;;;;65.50;28.20;;;9.90;99.90;;;;;;5031320;28;20034;-51
2023/01/07 00:31:17;;;;;;;56.95;26.73;;;10.20;99.90;;;;;;5031656;28;20118;-51
2023/01/07 00:36:19;;;;;;;57.42;25.77;;;10.40;99.90;;;;;;5009609;28;20045;-55
2023/01/07 00:38:45;;;;;;;64.40;27.42;;;10.00;99.90;;;;;;5030664;28;20076;-55
2023/01/07 00:41:11;;;;;;;59.97;25.20;;;10.00;99.90;;;;;;5031380;28;20053;-55
2023/01/07 00:43:36;;;;;;;55.47;25.25;;;10.20;99.90;;;;;;5030740;28;20529;-54
2023/01/07 00:46:02;;;;;;;56.60;26.13;;;10.20;99.90;;;;;;5027060;28;20048;-51
2023/01/07 00:48:28;;;;;;;57.97;24.70;;;;;;;;;;5029118;28;20108;-55
2023/01/07 00:50:54;;;;;;;55.63;24.77;;;10.10;99.90;;;;;;5031566;28;20040;-56
2023/01/07 00:53:20;;;;;;;56.05;25.90;;;10.40;99.90;;;;;;5031337;28;20037;-54
2023/01/07 00:55:50;;;;;;;54.45;25.23;;;10.00;99.90;;;;;;5031626;28;20041;-57
2023/01/07 00:58:20;;;;;;;54.97;25.08;;;9.90;99.90;;;;;;5029414;28;20348;-56
2023/01/07 01:00:45;;;;;;;57.60;26.02;;;10.80;99.90;;;;;;5030905;28;20099;-56
2023/01/07 01:03:11;;;;;;;46.53;24.42;;;10.10;99.90;;;;;;5013390;28;20033;-52
2023/01/07 01:05:38;;;;;;;54.65;26.45;;;10.10;99.90;;;;;;5031161;28;20049;-51
2023/01/07 01:08:05;;;;;;;56.40;27.67;;;10.10;99.90;;;;;;5026308;28;20029;-57
2023/01/07 01:10:30;;;;;;;53.78;26.23;;;10.60;99.90;;;;;;5031012;28;20124;-58
2023/01/07 01:12:56;;;;;;;52.67;27.77;;;9.90;99.90;;;;;;5031093;28;20104;-58
2023/01/07 01:15:22;;;;;;;58.30;28.42;;;9.80;99.90;;;;;;5031763;28;20156;-55
2023/01/07 01:17:50;;;;;;;59.13;28.67;;;10.20;99.90;;;;;;5029782;28;20485;-58
2023/01/07 01:20:16;;;;;;;63.80;29.80;;;10.60;99.90;;;;;;5007971;28;20041;-54
2023/01/07 01:22:42;;;;;;;57.95;29.52;;;10.10;99.90;;;;;;5030913;28;20511;-57
2023/01/07 01:25:08;;;;;;;59.38;31.15;;;10.70;99.90;;;;;;5030372;28;20037;-55
2023/01/07 01:27:34;;;;;;;63.63;32.58;;;9.80;99.90;;;;;;5028899;28;20116;-57
2023/01/07 01:30:01;;;;;;;63.72;30.17;;;10.30;99.90;;;;;;5009097;28;20068;-55
2023/01/07 01:32:27;;;;;;;58.22;30.35;;;10.50;99.90;;;;;;5012990;28;20045;-55
2023/01/07 01:34:53;;;;;;;64.75;33.17;;;9.80;99.90;;;;;;5012628;28;20041;-53
2023/01/07 01:37:18;;;;;;;62.53;32.53;;;9.90;99.90;;;;;;5029829;28;20048;-58
2023/01/07 01:39:44;;;;;;;61.53;30.98;;;10.30;99.90;;;;;;5029617;28;20052;-57
2023/01/07 01:42:19;;;;;;;60.30;31.65;;;10.20;99.90;;;;;;5023745;28;20495;-54
2023/01/07 01:44:44;;;;;;;61.05;32.50;;;10.20;99.90;;;;;;5029687;28;20045;-52
2023/01/07 01:47:22;;;;;;;59.83;31.50;;;10.20;99.90;;;;;;5012247;28;20045;-55
2023/01/07 01:49:53;;;;;;;58.78;31.95;;;;;;;;;;5029257;28;20518;-53
2023/01/07 01:52:33;;;;;;;53.60;30.08;;;10.30;99.90;;;;;;5025772;28;20048;-53
2023/01/07 01:55:01;;;;;;;64.68;33.58;;;9.80;99.90;;;;;;5030033;28;20522;-58
2023/01/07 01:57:30;;;;;;;56.95;31.45;;;10.10;99.90;;;;;;5011674;28;20127;-58
2023/01/07 01:59:59;;;;;;;52.05;30.63;;;10.00;99.90;;;;;;5026152;28;20601;-53
2023/01/07 02:02:37;;;;;;;49.50;30.40;;;9.80;99.90;;;;;;5026485;28;20073;-53
2023/01/07 02:05:03;;;;;;;54.58;31.90;;;10.70;99.90;;;;;;5022835;28;20042;-53
2023/01/07 02:07:29;;;;;;;55.88;30.92;;;;;;;;;;5028862;28;20538;-54
2023/01/07 02:10:01;;;;;;;53.20;30.20;;;9.90;99.90;;;;;;5029947;28;20422;-53
2023/01/07 02:12:45;;;;;;;46.25;30.48;;;10.50;99.90;;;;;;5028792;28;20049;-54
2023/01/07 02:15:28;;;;;;;51.83;30.17;;;;;;;;;;5027689;28;20037;-56
2023/01/07 02:18:20;;;;;;;54.25;30.13;;;10.60;99.90;;;;;;5021074;28;20044;-55
2023/01/07 02:21:23;;;;;;;56.83;31.15;;;10.00;99.90;;;;;;5029096;28;20073;-53
2023/01/07 02:23:49;;;;;;;52.40;31.70;;;10.20;99.90;;;;;;5028595;28;20061;-52
2023/01/07 02:26:42;;;;;;;45.80;29.70;;;10.40;99.90;;;;;;5009639;28;20459;-51
2023/01/07 02:29:39;;;;;;;45.53;28.38;;;10.30;99.90;;;;;;5023277;28;20099;-55
2023/01/07 02:32:43;;;;;;;48.08;29.35;;;10.10;99.90;;;;;;5029209;28;20120;-54
2023/01/07 02:35:27;;;;;;;47.45;29.92;;;9.70;99.90;;;;;;5017560;28;20068;-54
2023/01/07 02:37:55;;;;;;;46.53;28.23;;;10.50;99.90;;;;;;5021616;28;20521;-53
2023/01/07 02:40:41;;;;;;;47.83;29.73;;;9.70;99.90;;;;;;5027493;28;20453;-53
2023/01/07 02:43:35;;;;;;;46.10;29.50;;;10.20;99.90;;;;;;5028079;28;20052;-57
2023/01/07 02:46:21;;;;;;;43.22;27.33;;;10.50;99.90;;;;;;5029598;28;20117;-53
2023/01/07 02:48:47;;;;;;;46.28;27.30;;;;;;;;;;5027672;28;20041;-53
2023/01/07 02:51:13;;;;;;;46.47;26.50;;;10.30;90.60;;;;;;5026151;28;20041;-51
2023/01/07 02:53:42;;;;;;;41.50;27.15;;;10.20;67.60;;;;;;5029266;28;20400;-52
2023/01/07 02:56:23;;;;;;;43.45;28.20;;;9.70;62.30;;;;;;5009955;28;20109;-54
2023/01/07 02:59:04;;;;;;;39.83;26.02;;;10.40;56.70;;;;;;5010929;28;20042;-51
2023/01/07 03:01:42;;;;;;;36.42;23.20;;;9.60;16.40;;;;;;5020599;28;20048;-55
2023/01/07 03:04:11;;;;;;;32.30;22.88;;;9.70;1.00;;;;;;5029251;28;20077;-55
2023/01/07 03:06:40;;;;;;;34.72;22.95;;;10.30;1.00;;;;;;5029671;28;20036;-52
2023/01/07 03:09:16;;;;;;;34.50;23.13;;;;;;;;;;5029077;28;20034;-51
2023/01/07 03:11:52;;;;;;;33.13;22.27;;;10.60;99.90;;;;;;5028513;28;20041;-48
2023/01/07 03:14:23;;;;;;;37.35;22.02;;;9.70;99.90;;;;;;5036697;28;20045;-52
2023/01/07 03:16:57;;;;;;;37.97;22.70;;;10.30;99.90;;;;;;5033060;28;20073;-50
2023/01/07 03:19:33;;;;;;;34.83;22.25;;;10.50;99.90;;;;;;5033467;28;20041;-51
2023/01/07 03:22:01;;;;;;;34.88;20.45;;;10.10;99.90;;;;;;5024138;28;20052;-53
2023/01/07 03:24:30;;;;;;;30.95;20.55;;;10.40;99.90;;;;;;5031401;28;20418;-55
2023/01/07 03:27:01;;;;;;;30.35;20.77;;;10.00;99.90;;;;;;5024874;28;20463;-58
2023/01/07 03:29:28;;;;;;;32.75;22.13;;;10.10;99.90;;;;;;5033237;28;20117;-52
2023/01/07 03:32:35;;;;;;;34.00;21.70;;;10.30;99.90;;;;;;5033159;28;20037;-52
2023/01/07 03:35:01;;;;;;;34.22;21.13;;;10.10;99.90;;;;;;4975565;28;20121;-52
2023/01/07 03:37:27;;;;;;;31.50;21.17;;;10.30;99.90;;;;;;4976895;28;20050;-52
2023/01/07 03:39:54;;;;;;;30.88;21.00;;;10.30;99.90;;;;;;4983357;28;20517;-55
2023/01/07 03:45:12;;;;;;;30.13;19.83;;;9.80;99.90;;;;;;5028576;28;20121;-55
2023/01/07 03:47:46;;;;;;;30.40;19.77;;;10.30;99.90;;;;;;5029844;28;20029;-54
2023/01/07 03:50:15;;;;;;;29.33;18.88;;;9.80;99.90;;;;;;5032104;28;20442;-55
2023/01/07 03:52:41;;;;;;;28.92;20.10;;;9.90;99.90;;;;;;5032352;28;20047;-53
2023/01/07 03:55:08;;;;;;;29.95;19.05;;;10.90;99.90;;;;;;5030788;28;20041;-49
2023/01/07 03:57:34;;;;;;;27.95;18.92;;;9.80;99.90;;;;;;5031018;28;20043;-51
2023/01/07 04:00:00;;;;;;;25.90;19.40;;;10.00;99.90;;;;;;5032937;28;20041;-51
2023/01/07 04:02:25;;;;;;;27.30;18.30;;;9.50;99.90;;;;;;5029795;28;20053;-52
2023/01/07 04:04:51;;;;;;;27.50;17.98;;;10.40;99.90;;;;;;5027554;28;20034;-52
2023/01/07 04:07:18;;;;;;;26.80;17.70;;;10.00;99.90;;;;;;5026709;28;20049;-52
2023/01/07 04:09:46;;;;;;;27.67;18.08;;;10.40;99.90;;;;;;5031767;28;20052;-52
2023/01/07 04:12:12;;;;;;;26.90;18.33;;;10.50;99.90;;;;;;5032185;28;20495;-52
2023/01/07 04:14:38;;;;;;;31.60;19.70;;;9.70;99.90;;;;;;5032026;28;20052;-50
2023/01/07 04:17:04;;;;;;;27.42;19.38;;;9.90;99.90;;;;;;5028756;28;20037;-52
2023/01/07 04:19:29;;;;;;;32.60;19.80;;;10.20;99.90;;;;;;5031853;28;20034;-55
2023/01/07 04:21:55;;;;;;;28.70;18.58;;;9.50;99.90;;;;;;5031115;28;20029;-49
2023/01/07 04:24:21;;;;;;;30.38;19.70;;;9.50;99.90;;;;;;5031381;28;20038;-50
2023/01/07 04:26:46;;;;;;;31.23;20.98;;;10.20;99.90;;;;;;5031817;28;20061;-50
2023/01/07 04:29:12;;;;;;;29.08;18.77;;;10.30;99.90;;;;;;5024892;28;20140;-48
2023/01/07 04:31:38;;;;;;;28.50;19.15;;;10.10;99.90;;;;;;5031790;28;20033;-50
2023/01/07 04:34:03;;;;;;;29.33;20.25;;;;;;;;;;5032086;28;20037;-55
2023/01/07 04:36:29;;;;;;;31.48;20.48;;;10.10;99.90;;;;;;5031593;28;20041;-52
2023/01/07 04:38:55;;;;;;;28.60;17.63;;;10.40;99.90;;;;;;5028163;28;20036;-52
2023/01/07 04:41:20;;;;;;;28.92;18.60;;;10.10;99.90;;;;;;5029066;28;20044;-50
2023/01/07 04:43:46;;;;;;;27.15;19.90;;;10.10;99.90;;;;;;5013200;28;20038;-52
2023/01/07 04:46:12;;;;;;;29.00;19.20;;;10.30;99.90;;;;;;5012839;28;20499;-53
2023/01/07 04:48:37;;;;;;;27.83;17.90;;;10.40;99.90;;;;;;5030828;28;20467;-52
2023/01/07 04:51:03;;;;;;;26.90;18.00;;;10.40;99.90;;;;;;5027284;28;20083;-52
2023/01/07 04:53:29;;;;;;;27.00;18.58;;;10.40;95.80;;;;;;5030136;28;20072;-51
2023/01/07 04:55:55;;;;;;;25.67;17.35;;;10.00;57.70;;;;;;5031053;28;20069;-52
2023/01/07 04:58:20;;;;;;;27.55;18.77;;;10.70;55.50;;;;;;5030660;28;20453;-53
2023/01/07 05:00:47;;;;;;;27.40;19.08;;;10.00;45.40;;;;;;5029066;28;20098;-50
2023/01/07 05:03:12;;;;;;;24.27;16.70;;;10.40;37.00;;;;;;5028219;28;20029;-52
2023/01/07 05:05:38;;;;;;;24.40;17.83;;;10.70;22.50;;;;;;5031240;28;20042;-49
2023/01/07 05:08:04;;;;;;;24.73;18.10;;;10.10;22.60;;;;;;5030141;28;20033;-50
2023/01/07 05:10:29;;;;;;;25.83;18.00;;;10.30;14.40;;;;;;5025192;28;20570;-55
2023/01/07 05:12:55;;;;;;;25.35;17.98;;;9.80;5.00;;;;;;5012733;28;20041;-53
2023/01/07 05:15:21;;;;;;;25.67;17.42;;;10.40;1.00;;;;;;5031424;28;20041;-52
2023/01/07 05:17:46;;;;;;;22.77;17.08;;;9.80;8.30;;;;;;5029920;28;20055;-51
2023/01/07 05:20:13;;;;;;;26.50;16.20;;;10.40;4.10;;;;;;5030073;28;20041;-54
2023/01/07 05:22:38;;;;;;;23.13;14.68;;;10.60;3.90;;;;;;5026066;28;20042;-53
2023/01/07 05:25:04;;;;;;;22.85;14.88;;;10.50;5.60;;;;;;5013045;28;20040;-52
2023/01/07 05:27:30;;;;;;;25.60;16.00;;;9.80;7.00;;;;;;5030168;28;20041;-52
2023/01/07 05:29:55;;;;;;;23.20;15.70;;;10.60;8.70;;;;;;5030692;28;20041;-51
2023/01/07 05:32:21;;;;;;;20.38;15.30;;;9.80;4.30;;;;;;5027279;28;20037;-52
2023/01/07 05:34:47;;;;;;;23.55;16.10;;;10.30;6.10;;;;;;5029706;28;20029;-54
2023/01/07 05:37:12;;;;;;;22.23;15.50;;;10.10;1.00;;;;;;5030475;28;20168;-51
2023/01/07 05:39:38;;;;;;;20.92;14.77;;;10.40;1.00;;;;;;5029801;28;20479;-48
2023/01/07 05:42:04;;;;;;;21.30;14.38;;;10.20;1.00;;;;;;5026535;28;20042;-54
2023/01/07 05:44:29;;;;;;;21.80;14.57;;;10.10;1.00;;;;;;5026672;28;20121;-53
2023/01/07 05:46:55;;;;;;;23.95;16.90;;;;;;;;;;5030429;28;20487;-49
2023/01/07 05:49:21;;;;;;;26.88;16.02;;;9.90;1.00;;;;;;5030001;28;20495;-51
2023/01/07 05:51:46;;;;;;;22.38;15.52;;;10.40;1.00;;;;;;5029170;28;20041;-52
2023/01/07 05:54:12;;;;;;;23.42;15.38;;;9.70;1.00;;;;;;5011511;28;20045;-49
2023/01/07 05:56:38;;;;;;;22.73;15.05;;;10.20;1.00;;;;;;5030059;28;20025;-52
2023/01/07 05:59:03;;;;;;;23.85;16.67;;;10.20;1.00;;;;;;5030334;28;20029;-50
2023/01/07 06:01:29;;;;;;;22.20;15.85;;;10.10;1.00;;;;;;5029428;28;20112;-54
2023/01/07 06:03:54;;;;;;;23.52;16.30;;;9.70;1.00;;;;;;5025363;28;20507;-52
2023/01/07 06:06:20;;;;;;;23.95;15.50;;;9.80;1.00;;;;;;5026069;28;20595;-52
2023/01/07 06:08:46;;;;;;;26.17;16.17;;;9.80;1.00;;;;;;5029341;28;20036;-53
2023/01/07 06:11:14;;;;;;;21.58;15.18;;;10.10;1.00;;;;;;5026121;28;20065;-54
2023/01/07 06:13:40;;;;;;;26.58;17.00;;;10.10;1.00;;;;;;5024678;28;20116;-52
2023/01/07 06:16:08;;;;;;;24.88;16.48;;;9.80;1.00;;;;;;5029987;28;20120;-53
2023/01/07 06:18:34;;;;;;;27.33;16.70;;;9.80;1.40;;;;;;5029486;28;20052;-52
2023/01/07 06:21:01;;;;;;;21.73;15.18;;;10.00;1.00;;;;;;5030054;28;20069;-53
2023/01/07 06:23:26;;;;;;;25.15;15.57;;;9.10;1.00;;;;;;5029316;28;20037;-54
2023/01/07 06:25:53;;;;;;;23.63;15.45;;;;;;;;;;5029830;28;20108;-52
2023/01/07 06:28:19;;;;;;;23.95;16.08;;;10.10;1.00;;;;;;5024053;28;20671;-51
2023/01/07 06:30:45;;;;;;;23.70;16.52;;;10.00;1.00;;;;;;5028466;28;20043;-52
2023/01/07 06:33:12;;;;;;;24.55;15.93;;;9.20;2.90;;;;;;5023131;28;20069;-54
2023/01/07 06:35:38;;;;;;;23.48;15.60;;;9.50;7.20;;;;;;5024986;28;20045;-52
2023/01/07 06:38:03;;;;;;;23.30;15.88;;;10.00;8.10;;;;;;5020741;28;20045;-53
2023/01/07 06:40:29;;;;;;;24.63;16.45;;;9.90;1.60;;;;;;5029764;28;20498;-51
2023/01/07 06:42:55;;;;;;;23.67;14.88;;;9.50;3.00;;;;;;5028936;28;20034;-52
2023/01/07 06:45:21;;;;;;;23.02;14.57;;;9.50;1.00;;;;;;5012882;28;20045;-50
2023/01/07 06:47:47;;;;;;;23.20;15.20;;;9.60;1.00;;;;;;5033018;28;20040;-52
2023/01/07 06:50:14;;;;;;;21.38;13.85;;;9.60;1.00;;;;;;5015697;28;20427;-51
2023/01/07 06:52:40;;;;;;;21.65;15.13;;;10.10;1.00;;;;;;5033755;28;20521;-49
2023/01/07 06:55:06;;;;;;;20.70;13.85;;;9.30;1.00;;;;;;5032808;28;20041;-52
2023/01/07 06:57:31;;;;;;;20.15;13.75;;;9.60;1.00;;;;;;5032631;28;20076;-52
2023/01/07 06:59:57;;;;;;;20.13;14.13;;;9.70;1.00;;;;;;5032485;28;20033;-52
2023/01/07 07:02:25;;;;;;;20.13;14.60;;;9.60;1.00;;;;;;5025564;28;20052;-50
2023/01/07 07:04:51;;;;;;;18.95;13.45;;;9.60;1.00;;;;;;5032490;28;20487;-54
2023/01/07 07:07:17;;;;;;;22.10;14.75;;;9.60;1.00;;;;;;5029040;28;20044;-53
2023/01/07 07:09:43;;;;;;;23.88;15.30;;;9.40;1.00;;;;;;5033461;28;20037;-52
2023/01/07 07:12:09;;;;;;;29.73;15.13;;;9.80;1.00;;;;;;5033735;28;20029;-50
2023/01/07 07:14:35;;;;;;;22.02;14.43;;;9.20;1.00;;;;;;5033538;28;20037;-53
2023/01/07 07:17:01;;;;;;;23.55;13.73;;;9.50;1.00;;;;;;5024852;28;20053;-54
2023/01/07 07:19:26;;;;;;;20.25;14.30;;;9.90;1.00;;;;;;5025880;28;20128;-54
2023/01/07 07:21:52;;;;;;;23.35;14.15;;;9.40;1.00;;;;;;5024201;28;20108;-53
2023/01/07 07:24:18;;;;;;;21.70;16.05;;;9.50;5.30;;;;;;5015675;28;20414;-50
2023/01/07 07:26:43;;;;;;;23.88;15.32;;;9.60;12.30;;;;;;5030822;28;20583;-53
2023/01/07 07:29:09;;;;;;;22.45;15.75;;;9.50;44.70;;;;;;5028417;28;20352;-53
2023/01/07 07:31:36;;;;;;;26.27;15.95;;;9.60;54.80;;;;;;5031741;28;20037;-53
2023/01/07 07:34:01;;;;;;;24.10;16.38;;;9.30;62.90;;;;;;5027064;28;20080;-53
2023/01/07 07:36:27;;;;;;;22.73;14.55;;;9.50;75.90;;;;;;5032533;28;20479;-53
2023/01/07 07:38:53;;;;;;;24.25;15.75;;;9.40;80.90;;;;;;5023136;28;20035;-51
2023/01/07 07:41:18;;;;;;;21.13;14.27;;;9.60;88.00;;;;;;5029759;28;20113;-54
2023/01/07 07:43:44;;;;;;;21.92;15.05;;;9.30;77.60;;;;;;5032988;28;20076;-50
2023/01/07 07:46:09;;;;;;;22.00;14.52;;;8.90;79.30;;;;;;5032757;28;20038;-53
2023/01/07 07:48:35;;;;;;;20.98;14.35;;;9.50;73.70;;;;;;5031510;28;20033;-53
2023/01/07 07:51:01;;;;;;;19.23;13.82;;;9.30;66.80;;;;;;5028414;28;20499;-55
2023/01/07 07:53:27;;;;;;;21.52;13.73;;;9.00;71.00;;;;;;5030342;28;20053;-53
2023/01/07 07:55:52;;;;;;;23.35;13.65;;;9.10;72.70;;;;;;5030722;28;20099;-53
2023/01/07 07:58:19;;;;;;;22.45;14.43;;;9.50;69.40;;;;;;5030339;28;20041;-53
2023/01/07 08:00:48;;;;;;;21.10;13.88;;;8.80;61.50;;;;;;5031697;28;20080;-50
2023/01/07 08:03:14;;;;;;;20.50;13.88;;;8.90;55.40;;;;;;5032494;28;20500;-53
2023/01/07 08:05:43;;;;;;;20.73;13.27;;;9.20;45.90;;;;;;5014030;28;20052;-52
2023/01/07 08:08:11;;;;;;;19.83;12.80;;;9.50;58.00;;;;;;5031682;28;20037;-53
2023/01/07 08:10:38;;;;;;;17.40;11.85;;;9.40;54.00;;;;;;5032526;28;20479;-50
2023/01/07 08:13:04;;;;;;;18.35;11.60;;;10.20;26.80;;;;;;5027946;28;20069;-51
2023/01/07 08:15:29;;;;;;;17.42;11.73;;;9.90;26.70;;;;;;5028932;28;20041;-49
2023/01/07 08:18:07;;;;;;;15.93;10.77;;;9.50;23.70;;;;;;5032423;28;20038;-51
2023/01/07 08:20:35;;;;;;;15.18;10.18;;;9.80;23.80;;;;;;5032031;28;20446;-51
2023/01/07 08:23:02;;;;;;;14.57;9.25;;;9.00;16.20;;;;;;5028157;28;20371;-51
2023/01/07 08:25:28;;;;;;;17.08;9.45;;;9.60;4.00;;;;;;5028599;28;20080;-55
2023/01/07 08:27:55;;;;;;;12.95;8.05;;;9.40;1.00;;;;;;5014055;28;20037;-49
2023/01/07 08:30:21;;;;;;;15.50;8.90;;;8.90;1.00;;;;;;5024748;28;20108;-51
2023/01/07 08:32:47;;;;;;;13.20;8.73;;;9.10;1.00;;;;;;5031450;28;20033;-51
2023/01/07 08:35:12;;;;;;;13.82;8.13;;;9.30;1.00;;;;;;5025506;28;20049;-52
2023/01/07 08:37:38;;;;;;;12.70;8.68;;;9.30;1.00;;;;;;5027281;28;20037;-53
2023/01/07 08:40:05;;;;;;;11.63;7.72;;;9.60;1.00;;;;;;5031953;28;20117;-53
2023/01/07 08:42:31;;;;;;;13.35;7.97;;;9.00;1.00;;;;;;5031717;28;20364;-55
2023/01/07 08:44:56;;;;;;;13.77;7.45;;;9.50;1.00;;;;;;5032188;28;20103;-49
2023/01/07 08:47:26;;;;;;;13.07;8.30;;;9.40;1.00;;;;;;5030508;28;20372;-52
2023/01/07 08:49:56;;;;;;;12.13;7.68;;;9.90;1.00;;;;;;5030791;28;20499;-53
2023/01/07 08:52:23;;;;;;;13.15;7.40;;;9.00;1.00;;;;;;5030725;28;20091;-54
2023/01/07 08:54:49;;;;;;;11.55;6.38;;;9.20;1.00;;;;;;5030800;28;20041;-50
2023/01/07 08:57:16;;;;;;;12.10;7.32;;;9.60;1.00;;;;;;5030579;28;20068;-53
2023/01/07 08:59:44;;;;;;;12.55;7.10;;;9.30;1.00;;;;;;5032176;28;20387;-49
2023/01/07 09:02:17;;;;;;;14.10;7.43;;;9.70;1.00;;;;;;5016943;28;20038;-53
2023/01/07 09:04:44;;;;;;;10.60;6.82;;;9.70;1.00;;;;;;5000753;28;20296;-49
2023/01/07 09:07:10;;;;;;;10.57;7.00;;;9.50;1.00;;;;;;5026946;28;20037;-51
2023/01/07 09:09:36;;;;;;;10.75;6.53;;;9.80;1.00;;;;;;5029469;28;20380;-49
2023/01/07 09:12:05;;;;;;;10.27;6.55;;;9.50;1.00;;;;;;5022005;28;20040;-51
2023/01/07 09:14:31;;;;;;;10.98;6.55;;;9.60;1.00;;;;;;5025370;28;20036;-53
2023/01/07 09:16:57;;;;;;;8.27;5.40;;;9.50;1.00;;;;;;5024819;28;20195;-49
2023/01/07 09:19:22;;;;;;;10.98;5.60;;;9.30;1.00;;;;;;5031934;28;20956;-50
2023/01/07 09:21:50;;;;;;;9.45;5.60;;;9.40;1.00;;;;;;5036577;28;20043;-53
2023/01/07 09:24:16;;;;;;;9.88;5.90;;;9.60;1.00;;;;;;5041872;28;20041;-54
2023/01/07 09:26:42;;;;;;;9.45;5.72;;;9.50;1.00;;;;;;5031880;28;20067;-51
2023/01/07 09:29:08;;;;;;;12.15;6.30;;;9.40;1.00;;;;;;5041868;28;20041;-51
2023/01/07 09:31:33;;;;;;;10.48;5.63;;;9.40;1.00;;;;;;5015891;28;20127;-49
2023/01/07 09:33:59;;;;;;;9.20;5.53;;;9.80;1.00;;;;;;5040442;28;20075;-49
2023/01/07 09:36:25;;;;;;;9.85;5.60;;;9.50;1.00;;;;;;5033403;28;20539;-51
2023/01/07 09:38:52;;;;;;;8.13;5.07;;;9.60;1.00;;;;;;5020161;28;20111;-49
2023/01/07 09:41:46;;;;;;;10.57;5.78;;;9.30;1.00;;;;;;5029525;28;20044;-49
2023/01/07 09:44:27;;;;;;;8.27;5.00;;;;;;;;;;5039571;28;20048;-50
2023/01/07 09:46:55;;;;;;;11.13;6.10;;;9.80;1.00;;;;;;5025761;28;20452;-51
2023/01/07 09:49:28;;;;;;;10.30;4.70;;;9.50;1.00;;;;;;5043636;28;20033;-49
2023/01/07 09:52:25;;;;;;;8.20;4.72;;;9.30;1.00;;;;;;5017112;28;20545;-50
2023/01/07 09:54:59;;;;;;;8.32;4.82;;;9.30;1.00;;;;;;5043970;28;20045;-49
2023/01/07 09:57:28;;;;;;;11.13;5.00;;;9.50;1.00;;;;;;5046263;28;20041;-51
2023/01/07 09:59:54;;;;;;;8.50;4.53;;;9.70;1.00;;;;;;5045168;28;20113;-48
2023/01/07 10:02:44;;;;;;;8.73;4.40;;;9.80;1.00;;;;;;5045382;28;20059;-48
2023/01/07 10:05:13;;;;;;;6.53;3.85;;;9.40;1.00;;;;;;5037283;28;20496;-50
2023/01/07 10:08:01;;;;;;;7.22;4.15;;;9.80;1.00;;;;;;5044997;28;20131;-50
2023/01/07 10:10:39;;;;;;;6.93;3.53;;;10.00;1.00;;;;;;4997662;28;20070;-50
2023/01/07 10:13:14;;;;;;;8.38;3.38;;;9.90;1.00;;;;;;5030968;28;20496;-50
2023/01/07 10:15:52;;;;;;;6.85;3.30;;;9.90;1.00;;;;;;5009723;28;20044;-51
2023/01/07 10:18:30;;;;;;;5.72;2.70;;;9.80;99.90;;;;;;5035710;28;20506;-50
2023/01/07 10:21:22;;;;;;;6.45;3.15;;;10.50;99.90;;;;;;5030818;28;20104;-48
2023/01/07 10:24:02;;;;;;;7.10;2.95;;;;;;;;;;4998592;28;20124;-49
2023/01/07 10:26:36;;;;;;;6.32;2.88;;;9.90;99.90;;;;;;5027431;28;20044;-52
2023/01/07 10:29:38;;;;;;;5.18;2.60;;;10.20;99.90;;;;;;5029081;28;20425;-49
2023/01/07 10:32:27;;;;;;;6.43;3.05;;;10.30;99.90;;;;;;5035278;28;20041;-48
2023/01/07 10:34:57;;;;;;;6.50;2.72;;;10.20;99.90;;;;;;5029043;28;20046;-50
2023/01/07 10:37:31;;;;;;;5.88;3.00;;;10.30;99.90;;;;;;5029647;28;20048;-49
2023/01/07 10:40:03;;;;;;;6.30;2.67;;;;;;;;;;5027863;28;20056;-49
2023/01/07 10:42:39;;;;;;;7.80;2.90;;;10.20;99.90;;;;;;5029076;28;20056;-48
2023/01/07 10:45:11;;;;;;;5.30;2.42;;;10.20;99.90;;;;;;5011770;28;20049;-48
2023/01/07 10:48:02;;;;;;;5.20;2.28;;;10.30;99.90;;;;;;5006666;28;20119;-50
2023/01/07 10:50:42;;;;;;;5.38;2.25;;;10.60;99.90;;;;;;5026527;28;20120;-48
2023/01/07 10:53:20;;;;;;;5.05;2.45;;;10.50;99.90;;;;;;5006578;28;20038;-49
2023/01/07 10:56:06;;;;;;;6.05;2.38;;;10.80;99.90;;;;;;5023534;28;20052;-50
2023/01/07 10:58:39;;;;;;;6.30;3.75;;;10.20;99.90;;;;;;5027477;28;20411;-51
2023/01/07 11:01:09;;;;;;;6.15;2.58;;;10.50;99.90;;;;;;5029348;28;20406;-48
2023/01/07 11:03:37;;;;;;;5.32;2.38;;;10.00;99.90;;;;;;5028702;28;20061;-52
2023/01/07 11:06:06;;;;;;;5.60;2.60;;;;;;;;;;5029230;28;20550;-49
2023/01/07 11:08:40;;;;;;;5.28;2.20;;;11.10;99.90;;;;;;5028196;28;20033;-49
2023/01/07 11:11:13;;;;;;;5.25;2.08;;;11.60;99.90;;;;;;5023017;28;20041;-50
2023/01/07 11:13:41;;;;;;;6.30;3.20;;;10.80;99.90;;;;;;5029175;28;20462;-49
2023/01/07 11:16:17;;;;;;;5.47;2.80;;;10.30;99.90;;;;;;5028844;28;20079;-51
2023/01/07 11:19:05;;;;;;;5.82;2.22;;;10.30;99.90;;;;;;5027799;28;20076;-50
2023/01/07 11:21:39;;;;;;;4.75;2.00;;;10.40;99.90;;;;;;5028073;28;20096;-49
2023/01/07 11:24:37;;;;;;;4.68;2.15;;;11.20;99.90;;;;;;5024624;28;20041;-51
2023/01/07 11:27:13;;;;;;;6.25;2.03;;;10.70;99.90;;;;;;4977934;28;20076;-52
2023/01/07 11:29:43;;;;;;;4.72;2.35;;;11.20;99.90;;;;;;5028159;28;20029;-52
2023/01/07 11:32:27;;;;;;;5.25;2.28;;;11.00;99.90;;;;;;5013622;28;20060;-51
2023/01/07 11:35:01;;;;;;;5.25;2.40;;;10.90;99.90;;;;;;5032361;28;20384;-48
2023/01/07 11:37:30;;;;;;;5.43;1.85;;;11.00;99.90;;;;;;5031789;28;20459;-48
2023/01/07 11:40:02;;;;;;;5.82;2.03;;;11.20;99.90;;;;;;5024469;28;20046;-49
2023/01/07 11:42:37;;;;;;;5.43;2.10;;;10.40;99.90;;;;;;5014588;28;20037;-48
2023/01/07 11:45:30;;;;;;;4.20;1.73;;;10.90;99.90;;;;;;5031320;28;20419;-50
2023/01/07 11:48:08;;;;;;;5.82;2.17;;;11.00;99.90;;;;;;5028850;28;20033;-52
2023/01/07 11:50:41;;;;;;;4.93;1.40;;;11.20;99.90;;;;;;5029436;28;20043;-50
2023/01/07 11:53:25;;;;;;;4.10;1.60;;;11.50;99.90;;;;;;5010978;28;20029;-48
2023/01/07 11:56:05;;;;;;;4.18;1.45;;;11.10;99.90;;;;;;5013679;28;20037;-48
2023/01/07 11:58:43;;;;;;;4.93;1.40;;;10.70;99.90;;;;;;5031092;28;20052;-51
2023/01/07 12:01:11;;;;;;;3.85;1.40;;;12.40;99.90;;;;;;5032277;28;20411;-48
2023/01/07 12:04:03;;;;;;;3.72;1.40;;;12.10;99.90;;;;;;5014333;28;20553;-49
2023/01/07 12:06:37;;;;;;;4.15;1.65;;;11.80;99.90;;;;;;5007618;28;20049;-51
2023/01/07 12:09:26;;;;;;;4.70;1.70;;;12.00;99.90;;;;;;5031723;28;20037;-49
2023/01/07 12:11:55;;;;;;;5.38;1.90;;;11.90;99.90;;;;;;5014738;28;20124;-50
2023/01/07 12:14:31;;;;;;;5.20;1.83;;;12.20;99.90;;;;;;5032207;28;20055;-52
2023/01/07 12:17:15;;;;;;;5.50;1.70;;;12.20;99.90;;;;;;5024646;28;20117;-49
2023/01/07 12:19:54;;;;;;;3.80;1.48;;;12.20;99.90;;;;;;5030554;28;20564;-49
2023/01/07 12:22:48;;;;;;;3.75;1.50;;;12.00;99.90;;;;;;5013778;28;20486;-49
2023/01/07 12:25:44;;;;;;;5.28;2.22;;;12.90;99.90;;;;;;5026333;28;20045;-51
2023/01/07 12:28:17;;;;;;;7.07;1.83;;;13.70;99.90;;;;;;5008255;28;20419;-49
2023/01/07 12:31:01;;;;;;;4.70;2.05;;;13.40;99.90;;;;;;5014085;28;20041;-49
2023/01/07 12:33:49;;;;;;;5.15;1.80;;;14.00;99.90;;;;;;5026613;28;20399;-49
2023/01/07 12:37:00;;;;;;;4.38;1.98;;;14.50;99.90;;;;;;5011407;28;20045;-49
2023/01/07 12:39:36;;;;;;;4.05;1.35;;;14.10;99.90;;;;;;4949699;28;20051;-49
2023/01/07 12:42:23;;;;;;;4.47;1.67;;;13.20;99.90;;;;;;4931061;28;20600;-49
2023/01/07 12:44:53;;;;;;;6.72;1.40;;;13.90;99.90;;;;;;5002886;28;20076;-49
2023/01/07 12:47:50;;;;;;;3.58;1.20;;;13.40;99.90;;;;;;5030962;28;20128;-51
2023/01/07 12:50:23;;;;;;;4.18;1.55;;;13.10;99.90;;;;;;5031724;28;20083;-49
2023/01/07 12:52:56;;;;;;;4.40;1.60;;;12.20;99.90;;;;;;5030501;28;20036;-52
2023/01/07 12:55:38;;;;;;;3.35;1.20;;;12.40;99.90;;;;;;5031706;28;20084;-49
2023/01/07 12:58:36;;;;;;;4.13;1.40;;;12.40;99.90;;;;;;5028975;28;20088;-51
2023/01/07 13:01:34;;;;;;;5.63;1.33;;;12.60;99.90;;;;;;5025453;28;20045;-49
2023/01/07 13:04:23;;;;;;;4.75;1.30;;;12.30;99.90;;;;;;5031238;28;20432;-52
2023/01/07 13:07:08;;;;;;;4.28;1.50;;;;;;;;;;5029771;28;20099;-49
2023/01/07 13:09:51;;;;;;;7.47;6.18;;;11.70;99.90;;;;;;5031119;28;20041;-49
2023/01/07 13:12:43;;;;;;;4.13;1.40;;;11.90;99.90;;;;;;5013469;28;20415;-51